createdAt,value
2022-10-05T00:00:32.553Z,62.60
2022-10-05T00:03:09.950Z,63.02
2022-10-05T00:05:38.075Z,63.28
2022-10-05T00:08:19.379Z,63.51
2022-10-05T00:10:47.007Z,63.16
2022-10-05T00:13:24.629Z,64.62
2022-10-05T00:16:05.400Z,64.87
2022-10-05T00:18:35.701Z,65.27
2022-10-05T00:21:17.073Z,63.39
2022-10-05T00:23:45.095Z,63.12
2022-10-05T00:26:19.370Z,64.78
2022-10-05T00:28:48.558Z,66.11
2022-10-05T00:31:27.176Z,68.67
2022-10-05T00:33:55.693Z,65.84
2022-10-05T00:36:27.286Z,67.75
2022-10-05T00:38:56.237Z,70.08
2022-10-05T00:41:29.760Z,70.16
2022-10-05T00:44:20.336Z,67.00
2022-10-05T00:47:07.990Z,65.28
2022-10-05T00:50:09.045Z,63.08
2022-10-05T00:52:41.924Z,62.51
2022-10-05T00:55:36.246Z,63.91
2022-10-05T00:58:18.246Z,65.20
2022-10-05T01:00:59.088Z,64.72
2022-10-05T01:03:54.241Z,63.83
2022-10-05T01:06:26.119Z,63.65
2022-10-05T01:09:26.485Z,67.06
2022-10-05T01:12:05.583Z,68.06
2022-10-05T01:14:54.702Z,69.96
2022-10-05T01:17:35.372Z,68.87
2022-10-05T01:20:36.858Z,68.69
2022-10-05T01:23:30.308Z,66.81
2022-10-05T01:26:25.300Z,68.84
2022-10-05T01:29:15.813Z,68.77
2022-10-05T01:32:04.755Z,65.58
2022-10-05T01:35:03.750Z,65.32
2022-10-05T01:37:35.512Z,64.24
2022-10-05T01:40:33.395Z,64.08
2022-10-05T01:43:21.740Z,63.82
2022-10-05T01:45:56.258Z,67.21
2022-10-05T01:48:35.781Z,65.31
2022-10-05T01:51:18.670Z,64.58
2022-10-05T01:54:04.135Z,67.47
2022-10-05T01:56:44.066Z,69.96
2022-10-05T01:59:42.560Z,71.73
2022-10-05T02:02:15.505Z,67.13
2022-10-05T02:05:11.933Z,65.66
2022-10-05T02:07:44.646Z,69.01
2022-10-05T02:10:19.037Z,69.62
2022-10-05T02:12:47.334Z,68.70
2022-10-05T02:15:19.957Z,70.37
2022-10-05T02:18:00.011Z,69.08
2022-10-05T02:23:25.738Z,66.14
2022-10-05T02:25:59.116Z,66.48
2022-10-05T02:28:56.420Z,68.90
2022-10-05T02:31:29.471Z,68.70
2022-10-05T02:34:20.245Z,67.16
2022-10-05T02:37:06.565Z,65.42
2022-10-05T02:40:04.933Z,66.09
2022-10-05T02:43:00.380Z,65.47
2022-10-05T02:45:43.270Z,63.89
2022-10-05T02:48:42.966Z,65.57
2022-10-05T02:51:26.698Z,69.09
2022-10-05T02:54:06.297Z,70.57
2022-10-05T02:57:04.101Z,67.61
2022-10-05T02:59:41.832Z,68.53
2022-10-05T03:02:10.614Z,67.31
2022-10-05T03:05:10.033Z,68.81
2022-10-05T03:07:50.011Z,69.24
2022-10-05T03:10:29.203Z,68.59
2022-10-05T03:12:57.708Z,68.82
2022-10-05T03:15:53.262Z,66.63
2022-10-05T03:18:30.806Z,65.46
2022-10-05T03:21:42.765Z,64.15
2022-10-05T03:24:35.915Z,67.60
2022-10-05T03:27:17.523Z,68.48
2022-10-05T03:30:04.268Z,68.53
2022-10-05T03:32:51.432Z,71.37
2022-10-05T03:35:39.527Z,71.40
2022-10-05T03:38:19.109Z,68.72
2022-10-05T03:40:51.791Z,66.08
2022-10-05T03:43:47.941Z,67.48
2022-10-05T03:46:29.376Z,64.99
2022-10-05T03:49:11.359Z,64.01
2022-10-05T03:51:45.863Z,65.13
2022-10-05T03:54:21.434Z,64.96
2022-10-05T03:57:08.217Z,64.45
2022-10-05T04:00:17.260Z,63.12
2022-10-05T04:02:54.922Z,63.30
2022-10-05T04:05:27.873Z,62.48
2022-10-05T04:08:18.510Z,64.88
2022-10-05T04:11:00.742Z,62.60
2022-10-05T04:13:54.375Z,64.50
2022-10-05T04:16:42.119Z,68.04
2022-10-05T04:19:26.569Z,71.48
2022-10-05T04:22:09.726Z,66.88
2022-10-05T04:24:42.731Z,65.32
2022-10-05T04:27:20.929Z,66.74
2022-10-05T04:30:09.394Z,64.13
2022-10-05T04:32:48.317Z,65.35
2022-10-05T04:35:45.943Z,65.25
2022-10-05T04:38:49.325Z,64.95
2022-10-05T04:41:29.675Z,67.41
2022-10-05T04:44:08.414Z,66.13
2022-10-05T04:47:11.673Z,64.18
2022-10-05T04:50:22.747Z,64.47
2022-10-05T04:53:19.398Z,64.37
2022-10-05T04:56:00.748Z,66.01
2022-10-05T04:58:55.753Z,67.44
2022-10-05T05:01:40.321Z,64.92
2022-10-05T05:04:32.697Z,64.26
2022-10-05T05:07:23.099Z,64.67
2022-10-05T05:09:52.472Z,64.48
2022-10-05T05:12:26.772Z,61.79
2022-10-05T05:15:10.873Z,61.16
2022-10-05T05:18:11.285Z,63.14
2022-10-05T05:21:12.952Z,62.52
2022-10-05T05:23:52.239Z,62.18
2022-10-05T05:26:40.718Z,65.00
2022-10-05T05:29:19.369Z,63.03
2022-10-05T05:32:28.285Z,62.76
2022-10-05T05:35:23.559Z,62.85
2022-10-05T05:38:19.237Z,64.10
2022-10-05T05:41:19.005Z,62.52
2022-10-05T05:44:00.585Z,62.67
2022-10-05T05:47:02.432Z,63.30
2022-10-05T05:49:36.311Z,63.57
2022-10-05T05:52:34.777Z,63.60
2022-10-05T05:55:08.912Z,68.17
2022-10-05T05:57:43.630Z,68.25
2022-10-05T06:00:15.562Z,65.56
2022-10-05T06:03:04.181Z,64.02
2022-10-05T06:05:47.781Z,63.98
2022-10-05T06:08:43.688Z,66.48
2022-10-05T06:11:21.836Z,68.03
2022-10-05T06:13:52.227Z,66.84
2022-10-05T06:16:26.069Z,69.25
2022-10-05T06:19:03.829Z,68.13
2022-10-05T06:21:41.806Z,66.36
2022-10-05T06:24:23.321Z,65.46
2022-10-05T06:27:15.668Z,65.54
2022-10-05T06:30:16.060Z,67.05
2022-10-05T06:32:53.049Z,68.32
2022-10-05T06:35:34.086Z,67.70
2022-10-05T06:38:02.406Z,66.51
2022-10-05T06:40:42.290Z,66.75
2022-10-05T06:43:16.708Z,67.86
2022-10-05T06:45:54.167Z,67.31
2022-10-05T06:49:01.350Z,66.66
2022-10-05T06:51:38.851Z,65.69
2022-10-05T06:54:39.475Z,65.34
2022-10-05T06:57:24.513Z,65.62
2022-10-05T07:00:27.971Z,66.78
2022-10-05T07:03:13.019Z,65.88
2022-10-05T07:06:02.883Z,66.52
2022-10-05T07:09:05.102Z,66.33
2022-10-05T07:12:04.449Z,65.92
2022-10-05T07:14:47.384Z,66.82
2022-10-05T07:17:57.767Z,67.22
2022-10-05T07:20:44.497Z,66.36
2022-10-05T07:23:45.497Z,66.92
2022-10-05T07:26:41.177Z,67.42
2022-10-05T07:29:46.479Z,66.89
2022-10-05T07:32:40.058Z,66.22
2022-10-05T07:35:46.553Z,65.53
2022-10-05T07:38:41.144Z,65.09
2022-10-05T07:41:25.007Z,64.99
2022-10-05T07:44:26.019Z,64.88
2022-10-05T07:46:57.062Z,66.16
2022-10-05T07:49:52.463Z,66.42
2022-10-05T07:52:44.206Z,66.62
2022-10-05T07:55:21.958Z,65.75
2022-10-05T07:58:29.714Z,65.55
2022-10-05T08:01:13.141Z,65.53
2022-10-05T08:03:47.415Z,65.78
2022-10-05T08:06:39.322Z,64.85
2022-10-05T08:09:19.254Z,64.76
2022-10-05T08:12:02.406Z,65.49
2022-10-05T08:15:04.623Z,65.10
2022-10-05T08:17:48.886Z,65.58
2022-10-05T08:20:25.455Z,65.99
2022-10-05T08:23:24.042Z,65.54
2022-10-05T08:26:29.915Z,64.75
2022-10-05T08:29:17.817Z,64.34
2022-10-05T08:31:50.553Z,64.02
2022-10-05T08:34:33.876Z,63.47
2022-10-05T08:37:19.535Z,63.47
2022-10-05T08:40:03.501Z,63.50
2022-10-05T08:43:03.371Z,61.88
2022-10-05T08:45:44.960Z,61.08
2022-10-05T08:48:18.084Z,60.01
2022-10-05T08:51:15.954Z,60.45
2022-10-05T08:54:06.770Z,60.50
2022-10-05T08:56:50.214Z,60.41
2022-10-05T08:59:38.386Z,60.88
2022-10-05T09:02:29.994Z,60.32
2022-10-05T09:05:17.411Z,60.56
2022-10-05T09:08:28.666Z,60.23
2022-10-05T09:11:04.031Z,60.58
2022-10-05T09:13:56.974Z,60.70
2022-10-05T09:16:39.985Z,60.07
2022-10-05T09:19:14.877Z,61.41
2022-10-05T09:21:56.052Z,61.00
2022-10-05T09:24:28.312Z,59.52
2022-10-05T09:27:34.619Z,58.89
2022-10-05T09:30:14.344Z,59.83
2022-10-05T09:33:14.645Z,59.56
2022-10-05T09:36:10.054Z,59.24
2022-10-05T09:39:33.882Z,56.58
2022-10-05T09:42:26.361Z,56.46
2022-10-05T09:45:23.618Z,58.14
2022-10-05T09:48:00.273Z,55.99
2022-10-05T09:50:44.583Z,56.82
2022-10-05T09:53:40.760Z,56.74
2022-10-05T09:56:39.797Z,54.35
2022-10-05T09:59:43.992Z,55.58
2022-10-05T10:02:40.636Z,54.66
2022-10-05T10:05:40.112Z,54.03
2022-10-05T10:08:17.309Z,54.75
2022-10-05T10:10:52.934Z,54.73
2022-10-05T10:14:02.589Z,54.15
2022-10-05T10:16:44.012Z,55.91
2022-10-05T10:19:31.368Z,56.62
2022-10-05T10:22:31.693Z,55.17
2022-10-05T10:25:15.748Z,54.58
2022-10-05T10:27:54.583Z,53.52
2022-10-05T10:30:54.769Z,53.10
2022-10-05T10:33:51.445Z,54.43
2022-10-05T10:37:03.760Z,55.11
2022-10-05T10:39:43.010Z,53.51
2022-10-05T10:42:26.247Z,54.35
2022-10-05T10:45:05.178Z,53.04
2022-10-05T10:47:43.936Z,52.51
2022-10-05T10:50:51.328Z,51.74
2022-10-05T10:53:48.489Z,53.46
2022-10-05T10:56:45.402Z,54.66
2022-10-05T10:59:33.104Z,54.47
2022-10-05T11:02:40.312Z,53.68
2022-10-05T11:05:57.790Z,52.46
2022-10-05T11:09:31.860Z,52.95
2022-10-05T11:12:33.657Z,52.77
2022-10-05T11:15:11.973Z,54.17
2022-10-05T11:17:49.511Z,54.14
2022-10-05T11:20:36.443Z,53.01
2022-10-05T11:23:39.145Z,51.71
2022-10-05T11:26:25.351Z,53.49
2022-10-05T11:29:18.145Z,53.85
2022-10-05T11:32:05.521Z,54.00
2022-10-05T11:34:53.258Z,53.22
2022-10-05T11:37:46.421Z,53.45
2022-10-05T11:40:48.261Z,52.82
2022-10-05T11:43:19.325Z,51.07
2022-10-05T11:46:05.576Z,51.60
2022-10-05T11:48:56.430Z,51.11
2022-10-05T11:51:39.359Z,50.72
2022-10-05T11:55:09.085Z,49.07
2022-10-05T11:57:49.447Z,51.59
2022-10-05T12:00:21.245Z,50.55
2022-10-05T12:02:59.800Z,50.43
2022-10-05T12:06:09.397Z,48.43
2022-10-05T12:09:03.713Z,46.33
2022-10-05T12:11:47.047Z,48.12
2022-10-05T12:14:28.638Z,46.10
2022-10-05T12:17:44.350Z,46.95
2022-10-05T12:20:19.194Z,50.15
2022-10-05T12:22:55.449Z,45.92
2022-10-05T12:25:38.734Z,43.96
2022-10-05T12:28:12.432Z,44.23
2022-10-05T12:31:17.787Z,46.85
2022-10-05T12:34:10.374Z,46.96
2022-10-05T12:37:05.354Z,45.89
2022-10-05T12:40:07.121Z,44.49
2022-10-05T12:42:42.283Z,43.37
2022-10-05T12:45:33.594Z,44.13
2022-10-05T12:48:18.959Z,46.14
2022-10-05T12:50:57.421Z,44.74
2022-10-05T12:53:35.774Z,46.47
2022-10-05T12:56:48.261Z,43.20
2022-10-05T12:59:41.581Z,44.47
2022-10-05T13:02:42.121Z,45.77
2022-10-05T13:05:40.789Z,43.11
2022-10-05T13:08:09.070Z,44.67
2022-10-05T13:10:58.863Z,45.07
2022-10-05T13:13:42.153Z,42.00
2022-10-05T13:16:32.302Z,45.29
2022-10-05T13:19:19.553Z,44.31
2022-10-05T13:22:30.867Z,45.71
2022-10-05T13:25:22.939Z,44.40
2022-10-05T13:28:02.478Z,42.89
2022-10-05T13:30:31.682Z,45.35
2022-10-05T13:33:05.165Z,47.99
2022-10-05T13:35:46.521Z,46.21
2022-10-05T13:38:42.464Z,47.59
2022-10-05T13:41:19.978Z,47.09
2022-10-05T13:44:25.213Z,48.10
2022-10-05T13:47:25.340Z,47.61
2022-10-05T13:50:06.014Z,46.77
2022-10-05T13:53:04.620Z,46.21
2022-10-05T13:55:52.229Z,47.29
2022-10-05T13:59:05.109Z,47.97
2022-10-05T14:01:52.901Z,47.35
2022-10-05T14:04:46.946Z,47.04
2022-10-05T14:08:07.058Z,46.64
2022-10-05T14:10:44.238Z,46.55
2022-10-05T14:13:29.386Z,47.61
2022-10-05T14:16:22.357Z,47.82
2022-10-05T14:19:05.123Z,48.04
2022-10-05T14:21:47.496Z,48.33
2022-10-05T14:24:43.818Z,49.14
2022-10-05T14:27:24.014Z,48.32
2022-10-05T14:30:00.788Z,48.16
2022-10-05T14:32:34.763Z,48.10
2022-10-05T14:35:16.932Z,48.97
2022-10-05T14:37:56.132Z,48.00
2022-10-05T14:40:29.016Z,48.15
2022-10-05T14:43:16.432Z,48.84
2022-10-05T14:46:27.173Z,48.80
2022-10-05T14:49:24.392Z,49.08
2022-10-05T14:52:04.401Z,48.49
2022-10-05T14:55:29.225Z,48.63
2022-10-05T14:58:13.878Z,48.81
2022-10-05T15:01:02.566Z,49.41
2022-10-05T15:03:59.557Z,49.18
2022-10-05T15:07:18.951Z,49.60
2022-10-05T15:10:06.677Z,49.41
2022-10-05T15:12:39.531Z,49.97
2022-10-05T15:15:34.325Z,50.08
2022-10-05T15:18:32.458Z,50.38
2022-10-05T15:22:02.354Z,50.83
2022-10-05T15:25:04.160Z,50.49
2022-10-05T15:27:56.638Z,50.63
2022-10-05T15:30:27.713Z,50.62
2022-10-05T15:33:23.855Z,50.29
2022-10-05T15:36:17.965Z,50.76
2022-10-05T15:39:02.154Z,51.62
2022-10-05T15:41:50.340Z,51.69
2022-10-05T15:44:49.249Z,51.31
2022-10-05T15:47:46.609Z,51.45
2022-10-05T15:50:25.943Z,52.07
2022-10-05T15:53:17.234Z,52.06
2022-10-05T15:56:32.098Z,52.40
2022-10-05T15:59:27.967Z,51.82
2022-10-05T16:02:01.993Z,51.73
2022-10-05T16:05:04.475Z,51.95
2022-10-05T16:08:01.748Z,51.74
2022-10-05T16:10:34.898Z,51.80
2022-10-05T16:13:22.115Z,52.74
2022-10-05T16:16:16.460Z,52.71
2022-10-05T16:19:24.955Z,53.83
2022-10-05T16:22:07.081Z,54.90
2022-10-05T16:24:40.068Z,56.12
2022-10-05T16:27:37.487Z,56.11
2022-10-05T16:30:17.324Z,55.99
2022-10-05T16:33:34.479Z,56.16
2022-10-05T16:36:12.403Z,56.98
2022-10-05T16:39:04.009Z,57.02
2022-10-05T16:41:56.154Z,56.94
2022-10-05T16:44:37.274Z,56.73
2022-10-05T16:47:09.595Z,56.75
2022-10-05T16:50:16.347Z,57.53
2022-10-05T16:52:51.755Z,60.39
2022-10-05T16:55:27.445Z,61.21
2022-10-05T16:57:57.121Z,59.81
2022-10-05T17:00:37.999Z,59.72
2022-10-05T17:03:26.135Z,59.43
2022-10-05T17:06:19.946Z,58.25
2022-10-05T17:08:55.485Z,59.74
2022-10-05T17:11:36.789Z,58.91
2022-10-05T17:14:51.680Z,59.13
2022-10-05T17:17:37.160Z,60.58
2022-10-05T17:20:22.705Z,59.77
2022-10-05T17:23:00.306Z,61.97
2022-10-05T17:25:53.159Z,61.19
2022-10-05T17:28:40.365Z,61.93
2022-10-05T17:31:28.923Z,61.65
2022-10-05T17:34:28.778Z,62.32
2022-10-05T17:37:19.303Z,62.99
2022-10-05T17:39:51.408Z,62.54
2022-10-05T17:42:26.582Z,62.33
2022-10-05T17:44:58.079Z,61.35
2022-10-05T17:47:57.826Z,60.88
2022-10-05T17:51:02.608Z,63.57
2022-10-05T17:54:03.161Z,61.58
2022-10-05T17:56:57.476Z,62.32
2022-10-05T17:59:49.450Z,61.39
2022-10-05T18:02:40.790Z,61.56
2022-10-05T18:05:31.571Z,60.91
2022-10-05T18:08:16.753Z,60.19
2022-10-05T18:11:36.929Z,60.30
2022-10-05T18:14:27.435Z,61.78
2022-10-05T18:17:08.158Z,61.02
2022-10-05T18:19:38.394Z,60.01
2022-10-05T18:22:28.072Z,59.98
2022-10-05T18:25:04.653Z,60.26
2022-10-05T18:28:01.516Z,60.31
2022-10-05T18:30:40.919Z,61.77
2022-10-05T18:33:50.815Z,59.65
2022-10-05T18:36:39.863Z,60.84
2022-10-05T18:39:22.660Z,60.81
2022-10-05T18:42:02.952Z,61.34
2022-10-05T18:44:44.423Z,60.47
2022-10-05T18:47:30.997Z,61.52
2022-10-05T18:50:15.041Z,60.67
2022-10-05T18:53:21.246Z,60.15
2022-10-05T18:56:16.402Z,60.11
2022-10-05T18:58:59.970Z,60.42
2022-10-05T19:01:44.202Z,61.00
2022-10-05T19:04:34.651Z,60.72
2022-10-05T19:07:45.173Z,59.84
2022-10-05T19:10:30.845Z,60.72
2022-10-05T19:13:25.011Z,60.35
2022-10-05T19:16:25.626Z,59.89
2022-10-05T19:19:07.944Z,59.82
2022-10-05T19:22:06.781Z,61.48
2022-10-05T19:25:15.204Z,61.23
2022-10-05T19:27:55.178Z,62.44
2022-10-05T19:30:27.232Z,62.83
2022-10-05T19:33:33.683Z,61.68
2022-10-05T19:36:18.573Z,63.44
2022-10-05T19:39:30.457Z,63.44
2022-10-05T19:42:38.308Z,64.48
2022-10-05T19:45:12.998Z,65.28
2022-10-05T19:48:04.421Z,64.68
2022-10-05T19:50:34.687Z,65.44
2022-10-05T19:53:21.136Z,64.98
2022-10-05T19:55:49.895Z,65.51
2022-10-05T19:58:30.034Z,65.76
2022-10-05T20:01:06.999Z,64.36
2022-10-05T20:03:38.615Z,64.52
2022-10-05T20:06:08.179Z,65.08
2022-10-05T20:08:42.112Z,65.24
2022-10-05T20:11:21.996Z,64.67
2022-10-05T20:13:52.743Z,65.54
2022-10-05T20:16:45.220Z,64.48
2022-10-05T20:19:50.402Z,64.85
2022-10-05T20:22:28.432Z,63.79
2022-10-05T20:25:01.967Z,64.51
2022-10-05T20:27:41.980Z,65.39
2022-10-05T20:30:12.709Z,66.85
2022-10-05T20:32:41.212Z,66.66
2022-10-05T20:35:09.340Z,66.99
2022-10-05T20:37:37.739Z,67.06
2022-10-05T20:40:12.035Z,65.82
2022-10-05T20:42:40.920Z,65.11
2022-10-05T20:45:10.215Z,66.54
2022-10-05T20:47:38.389Z,66.70
2022-10-05T20:50:19.127Z,67.56
2022-10-05T20:52:50.791Z,67.26
2022-10-05T20:55:21.257Z,66.89
2022-10-05T20:57:50.259Z,66.75
2022-10-05T21:00:18.656Z,65.66
2022-10-05T21:02:47.010Z,64.60
2022-10-05T21:05:15.136Z,66.70
2022-10-05T21:07:43.522Z,66.99
2022-10-05T21:10:11.593Z,64.05
2022-10-05T21:12:39.644Z,65.95
2022-10-05T21:15:17.636Z,66.45
2022-10-05T21:17:45.891Z,66.30
2022-10-05T21:20:17.646Z,66.89
2022-10-05T21:22:45.689Z,64.75
2022-10-05T21:25:13.571Z,66.22
2022-10-05T21:27:41.811Z,66.05
2022-10-05T21:30:11.811Z,63.95
2022-10-05T21:32:44.202Z,64.98
2022-10-05T21:35:18.448Z,66.78
2022-10-05T21:37:48.022Z,68.39
2022-10-05T21:40:21.095Z,70.91
2022-10-05T21:42:49.093Z,67.29
2022-10-05T21:45:32.915Z,64.52
2022-10-05T21:48:09.404Z,68.56
2022-10-05T21:50:43.680Z,67.54
2022-10-05T21:53:19.031Z,65.86
2022-10-05T21:55:52.692Z,65.79
2022-10-05T21:58:21.447Z,65.37
2022-10-05T22:00:49.709Z,67.43
2022-10-05T22:03:21.556Z,69.35
2022-10-05T22:05:49.206Z,70.42
2022-10-05T22:08:34.708Z,67.53
2022-10-05T22:11:10.652Z,69.48
2022-10-05T22:13:50.215Z,69.96
2022-10-05T22:16:24.361Z,66.77
2022-10-05T22:18:53.747Z,66.56
2022-10-05T22:21:21.431Z,69.43
2022-10-05T22:23:54.822Z,69.91
2022-10-05T22:26:22.754Z,71.20
2022-10-05T22:28:58.782Z,70.19
2022-10-05T22:31:26.243Z,67.84
2022-10-05T22:33:54.006Z,66.50
2022-10-05T22:36:21.649Z,67.11
2022-10-05T22:38:49.195Z,65.23
2022-10-05T22:41:18.446Z,65.94
2022-10-05T22:43:51.289Z,67.98
2022-10-05T22:46:19.899Z,66.58
2022-10-05T22:48:48.029Z,66.84
2022-10-05T22:51:15.477Z,66.57
2022-10-05T22:53:45.193Z,66.96
2022-10-05T22:56:15.175Z,66.84
2022-10-05T22:58:54.217Z,66.76
2022-10-05T23:01:22.322Z,64.72
2022-10-05T23:03:50.126Z,64.93
2022-10-05T23:06:21.260Z,64.81
2022-10-05T23:08:48.634Z,66.03
2022-10-05T23:11:18.990Z,67.95
2022-10-05T23:13:46.433Z,67.56
2022-10-05T23:16:22.939Z,65.27
2022-10-05T23:18:52.423Z,65.02
2022-10-05T23:21:24.841Z,65.35
2022-10-05T23:23:56.251Z,64.26
2022-10-05T23:26:25.106Z,65.70
2022-10-05T23:28:52.885Z,66.75
2022-10-05T23:31:30.981Z,67.32
2022-10-05T23:34:01.407Z,65.11
2022-10-05T23:36:32.857Z,65.86
2022-10-05T23:39:00.316Z,66.34
2022-10-05T23:41:30.756Z,65.51
2022-10-05T23:44:01.253Z,64.57
2022-10-05T23:46:28.870Z,64.68
2022-10-05T23:48:56.600Z,63.82
2022-10-05T23:51:28.980Z,63.80
2022-10-05T23:53:56.529Z,65.18
2022-10-05T23:56:24.301Z,68.48
2022-10-05T23:58:54.305Z,65.32
